Terminal Aerodrome Forecast
Issued by NWS Rapid City, SD

Home | Current Version | Previous Version | Text Only | Print | Product List | Glossary Off
Versions: 1 2 3 4 5 6 7 8 9 10 11 12 13 14 15

947
FTUS43 KUNR 250232 AAA
TAFRAP
TAF AMD
KRAP 250232Z 2503/2524 30029G42KT P6SM BKN040
     FM251200 34025G35KT P6SM SCT050=

USA.gov is the U.S. government's official web portal to all federal, state and local government web resources and services.